createdAt,value
2018-03-03T00:00:12.555Z,82.59
2018-03-03T00:01:12.570Z,82.53
2018-03-03T00:02:12.555Z,82
2018-03-03T00:03:12.563Z,82.25
2018-03-03T00:04:12.563Z,82.9
2018-03-03T00:05:12.572Z,82.32
2018-03-03T00:06:12.594Z,83.08
2018-03-03T00:07:12.599Z,82.47
2018-03-03T00:08:12.579Z,82.3
2018-03-03T00:09:12.601Z,83.37
2018-03-03T00:10:12.596Z,82.64
2018-03-03T00:11:12.598Z,83.09
2018-03-03T00:12:12.629Z,82.65
2018-03-03T00:13:12.608Z,82.15
2018-03-03T00:14:12.612Z,83.21
2018-03-03T00:15:12.609Z,83.28
2018-03-03T00:16:12.795Z,82.07
2018-03-03T00:17:12.646Z,82.62
2018-03-03T00:18:12.620Z,82.95
2018-03-03T00:19:12.624Z,83.22
2018-03-03T00:20:12.625Z,82.98
2018-03-03T00:21:12.637Z,83.19
2018-03-03T00:22:12.660Z,83.54
2018-03-03T00:23:12.644Z,83.32
2018-03-03T00:24:12.648Z,83.25
2018-03-03T00:25:12.654Z,83.44
2018-03-03T00:26:12.649Z,82.88
2018-03-03T00:27:12.666Z,83.69
2018-03-03T00:28:12.645Z,83.28
2018-03-03T00:29:12.650Z,82.65
2018-03-03T00:30:12.652Z,83.1
2018-03-03T00:31:12.660Z,82.95
2018-03-03T00:32:12.686Z,83.59
2018-03-03T00:33:12.673Z,83.34
2018-03-03T00:34:12.660Z,83.08
2018-03-03T00:35:12.660Z,83.12
2018-03-03T00:36:12.666Z,83.36
2018-03-03T00:37:12.674Z,83.22
2018-03-03T00:38:12.677Z,83.73
2018-03-03T00:39:12.673Z,83.43
2018-03-03T00:40:12.678Z,83.25
2018-03-03T00:41:12.682Z,83.14
2018-03-03T00:42:12.692Z,82.41
2018-03-03T00:43:12.718Z,82.69
2018-03-03T00:44:12.708Z,83.42
2018-03-03T00:45:12.775Z,83.44
2018-03-03T00:46:12.706Z,83.69
2018-03-03T00:47:12.712Z,83.12
2018-03-03T00:48:12.713Z,82.95
2018-03-03T00:49:12.719Z,82.95
2018-03-03T00:50:12.744Z,82.87
2018-03-03T00:51:12.728Z,83.03
2018-03-03T00:52:12.726Z,84.23
2018-03-03T00:53:12.728Z,83.64
2018-03-03T00:54:12.732Z,83.19
2018-03-03T00:55:12.759Z,83.45
2018-03-03T00:56:12.737Z,83.3
2018-03-03T00:57:12.745Z,83.91
2018-03-03T00:58:12.748Z,83.47
2018-03-03T00:59:12.755Z,83.27
2018-03-03T01:00:13.023Z,83.03
2018-03-03T01:01:12.764Z,83.55
2018-03-03T01:02:12.796Z,83.22
2018-03-03T01:03:12.778Z,83.8
2018-03-03T01:04:12.774Z,83.25
2018-03-03T01:05:12.795Z,83.27
2018-03-03T01:06:12.777Z,83.21
2018-03-03T01:07:12.803Z,83.69
2018-03-03T01:08:12.789Z,83.93
2018-03-03T01:09:12.791Z,83.88
2018-03-03T01:10:12.802Z,83.49
2018-03-03T01:11:12.828Z,83.56
2018-03-03T01:12:12.799Z,84.05
2018-03-03T01:13:12.805Z,84.2
2018-03-03T01:14:12.809Z,84.02
2018-03-03T01:15:12.811Z,83.72
2018-03-03T01:16:12.827Z,83.95
2018-03-03T01:17:12.828Z,83.57
2018-03-03T01:18:12.810Z,83.44
2018-03-03T01:19:12.814Z,83.49
2018-03-03T01:20:12.816Z,83.57
2018-03-03T01:21:12.813Z,83.03
2018-03-03T01:23:12.837Z,83.49
2018-03-03T01:24:12.820Z,83.8
2018-03-03T01:25:12.828Z,83.84
2018-03-03T01:26:12.835Z,83.11
2018-03-03T01:27:12.852Z,83.35
2018-03-03T01:28:12.850Z,83.66
2018-03-03T01:29:12.847Z,82.75
2018-03-03T01:30:12.873Z,83.36
2018-03-03T01:31:12.858Z,82.97
2018-03-03T01:32:12.887Z,82.96
2018-03-03T01:33:12.866Z,83.38
2018-03-03T01:34:12.866Z,83.72
2018-03-03T01:35:12.862Z,83.7
2018-03-03T01:36:12.859Z,84.31
2018-03-03T01:37:12.886Z,83.33
2018-03-03T01:38:12.893Z,82.79
2018-03-03T01:40:12.946Z,83
2018-03-03T01:41:12.882Z,83.66
2018-03-03T01:42:12.888Z,84.14
2018-03-03T01:43:12.895Z,83.42
2018-03-03T01:44:12.930Z,83.35
2018-03-03T01:45:12.899Z,83.78
2018-03-03T01:46:12.904Z,83.16
2018-03-03T01:47:12.904Z,83.91
2018-03-03T01:48:12.905Z,83.34
2018-03-03T01:49:12.909Z,83.58
2018-03-03T01:50:12.908Z,83.63
2018-03-03T01:51:12.908Z,83.21
2018-03-03T01:52:12.911Z,84.07
2018-03-03T01:53:12.920Z,83.94
2018-03-03T01:54:12.943Z,83.81
2018-03-03T01:55:12.926Z,84.16
2018-03-03T01:56:12.933Z,83.89
2018-03-03T01:57:12.923Z,84.11
2018-03-03T01:58:12.924Z,83.76
2018-03-03T01:59:12.966Z,83.48
2018-03-03T02:00:12.937Z,84.03
2018-03-03T02:01:12.936Z,83.6
2018-03-03T02:02:12.941Z,84.24
2018-03-03T02:03:12.939Z,83.65
2018-03-03T02:04:12.959Z,83.7
2018-03-03T02:05:12.957Z,84.37
2018-03-03T02:06:12.939Z,83.83
2018-03-03T02:07:12.943Z,84.03
2018-03-03T02:08:12.953Z,83.81
2018-03-03T02:09:12.978Z,82.56
2018-03-03T02:10:12.962Z,82.31
2018-03-03T02:11:12.966Z,83.93
2018-03-03T02:12:12.971Z,82.39
2018-03-03T02:13:12.983Z,83.74
2018-03-03T02:14:12.993Z,83.31
2018-03-03T02:15:12.985Z,83.71
2018-03-03T02:16:12.986Z,83.77
2018-03-03T02:17:13.002Z,83.78
2018-03-03T02:18:12.996Z,83.52
2018-03-03T02:19:12.994Z,83.17
2018-03-03T02:20:12.991Z,84.02
2018-03-03T02:21:13.007Z,83.09
2018-03-03T02:22:13.002Z,83.89
2018-03-03T02:23:13.003Z,82.77
2018-03-03T02:24:13.013Z,84.17
2018-03-03T02:26:19.289Z,83.42
2018-03-03T02:27:13.024Z,83.37
2018-03-03T02:28:13.017Z,82.55
2018-03-03T02:29:13.020Z,82.76
2018-03-03T02:30:13.025Z,82.17
2018-03-03T02:32:19.184Z,84.29
2018-03-03T02:33:13.057Z,84.06
2018-03-03T02:34:13.049Z,83.28
2018-03-03T02:35:13.031Z,84.3
2018-03-03T02:36:13.039Z,83.26
2018-03-03T02:37:13.064Z,84.39
2018-03-03T02:38:13.045Z,84.39
2018-03-03T02:39:13.061Z,84.2
2018-03-03T02:40:13.050Z,83.53
2018-03-03T02:41:13.051Z,83.8
2018-03-03T02:42:13.080Z,83.17
2018-03-03T02:43:13.060Z,83.01
2018-03-03T02:44:13.062Z,82.74
2018-03-03T02:45:13.066Z,83.79
2018-03-03T02:46:13.068Z,83.43
2018-03-03T02:47:13.348Z,83.61
2018-03-03T02:48:13.064Z,83.86
2018-03-03T02:49:20.043Z,84.51
2018-03-03T02:50:13.061Z,85.03
2018-03-03T02:51:13.061Z,85.32
2018-03-03T02:52:13.092Z,84.88
2018-03-03T02:53:13.077Z,84.54
2018-03-03T02:54:13.075Z,83.97
2018-03-03T02:55:13.077Z,83.44
2018-03-03T02:56:13.083Z,84.96
2018-03-03T02:57:13.083Z,85.19
2018-03-03T02:58:13.364Z,85.51
2018-03-03T02:59:13.088Z,85.63
2018-03-03T03:00:13.095Z,85.95
2018-03-03T03:01:13.095Z,85.94
2018-03-03T03:02:13.105Z,85.54
2018-03-03T03:03:13.120Z,85.92
2018-03-03T03:04:13.116Z,86.22
2018-03-03T03:05:13.113Z,86.5
2018-03-03T03:06:13.113Z,87.21
2018-03-03T03:07:13.112Z,86.2
2018-03-03T03:08:13.118Z,86.2
2018-03-03T03:09:13.112Z,86.54
2018-03-03T03:10:13.150Z,86.98
2018-03-03T03:11:13.120Z,87.41
2018-03-03T03:12:13.131Z,87.46
2018-03-03T03:13:13.131Z,87.28
2018-03-03T03:14:13.139Z,87.43
2018-03-03T03:15:13.138Z,87.25
2018-03-03T03:16:13.144Z,87.15
2018-03-03T03:17:13.142Z,87.4
2018-03-03T03:18:13.149Z,87.13
2018-03-03T03:19:13.176Z,86.3
2018-03-03T03:20:13.150Z,85.51
2018-03-03T03:21:13.153Z,87.34
2018-03-03T03:22:13.159Z,87.68
2018-03-03T03:23:13.165Z,87.62
2018-03-03T03:24:13.185Z,87.81
2018-03-03T03:25:13.157Z,88.13
2018-03-03T03:26:13.164Z,88.21
2018-03-03T03:27:13.167Z,88.07
2018-03-03T03:29:13.304Z,87.46
2018-03-03T03:30:13.186Z,87.57
2018-03-03T03:31:13.209Z,86.79
2018-03-03T03:32:13.190Z,87.09
2018-03-03T03:33:13.192Z,86.99
2018-03-03T03:34:13.201Z,87.13
2018-03-03T03:35:13.205Z,86.6
2018-03-03T03:36:13.230Z,86.46
2018-03-03T03:37:13.209Z,85.47
2018-03-03T03:38:13.212Z,85.4
2018-03-03T03:39:13.218Z,85.4
2018-03-03T03:40:13.225Z,85.67
2018-03-03T03:41:13.240Z,85.31
2018-03-03T03:42:13.229Z,85.6
2018-03-03T03:43:13.232Z,86.7
2018-03-03T03:44:13.240Z,86.73
2018-03-03T03:45:13.235Z,86.13
2018-03-03T03:46:13.245Z,85.08
2018-03-03T03:47:13.269Z,85.62
2018-03-03T03:48:13.248Z,86.75
2018-03-03T03:49:13.246Z,87.1
2018-03-03T03:50:13.258Z,87.43
2018-03-03T03:51:13.255Z,86.79
2018-03-03T03:52:13.260Z,87.18
2018-03-03T03:53:13.277Z,86.96
2018-03-03T03:54:13.259Z,87.59
2018-03-03T03:55:13.416Z,87.25
2018-03-03T03:56:13.270Z,87.21
2018-03-03T03:57:13.267Z,86.8
2018-03-03T03:58:13.294Z,86.33
2018-03-03T03:59:13.272Z,86.85
2018-03-03T04:00:13.271Z,86.18
2018-03-03T04:01:13.279Z,86.32
2018-03-03T04:02:13.281Z,86.51
2018-03-03T04:03:13.287Z,85.65
2018-03-03T04:04:13.323Z,85.98
2018-03-03T04:05:13.291Z,86.19
2018-03-03T04:06:13.302Z,86.11
2018-03-03T04:07:13.305Z,86.32
2018-03-03T04:08:13.301Z,86.09
2018-03-03T04:09:13.314Z,85.92
2018-03-03T04:10:13.314Z,86.66
2018-03-03T04:11:13.313Z,86.74
2018-03-03T04:12:13.318Z,87.16
2018-03-03T04:13:13.323Z,86.95
2018-03-03T04:14:13.328Z,87.1
2018-03-03T04:15:13.330Z,86.95
2018-03-03T04:16:13.338Z,86.42
2018-03-03T04:17:13.347Z,86.16
2018-03-03T04:18:13.353Z,86.22
2018-03-03T04:19:13.350Z,86.89
2018-03-03T04:20:13.356Z,86.93
2018-03-03T04:21:13.372Z,87.23
2018-03-03T04:22:13.360Z,87.06
2018-03-03T04:23:13.368Z,86.88
2018-03-03T04:24:13.377Z,86.96
2018-03-03T04:25:13.368Z,87.03
2018-03-03T04:26:13.370Z,87.46
2018-03-03T04:27:13.389Z,86.82
2018-03-03T04:28:13.389Z,87.33
2018-03-03T04:29:13.393Z,86.89
2018-03-03T04:30:13.374Z,87.28
2018-03-03T04:31:13.380Z,87.55
2018-03-03T04:32:13.386Z,87.53
2018-03-03T04:33:13.386Z,87.38
2018-03-03T04:34:13.411Z,87.67
2018-03-03T04:35:13.403Z,87.04
2018-03-03T04:36:13.405Z,87.61
2018-03-03T04:37:13.405Z,87.87
2018-03-03T04:38:13.410Z,87.63
2018-03-03T04:39:13.435Z,87.87
2018-03-03T04:40:13.421Z,87.61
2018-03-03T04:41:13.431Z,86.3
2018-03-03T04:42:13.425Z,86.35
2018-03-03T04:44:13.468Z,86.77
2018-03-03T04:45:13.441Z,86.78
2018-03-03T04:46:13.450Z,86.85
2018-03-03T04:47:13.450Z,87.03
2018-03-03T04:48:13.951Z,87.46
2018-03-03T04:49:13.508Z,88.12
2018-03-03T04:50:13.457Z,88.5
2018-03-03T04:51:13.465Z,87.85
2018-03-03T04:52:13.462Z,87.64
2018-03-03T04:53:13.464Z,87.54
2018-03-03T04:54:13.463Z,86.46
2018-03-03T04:55:13.463Z,87.74
2018-03-03T04:56:13.468Z,88.03
2018-03-03T04:57:13.474Z,88.48
2018-03-03T04:58:13.474Z,88.19
2018-03-03T04:59:13.474Z,87.81
2018-03-03T05:00:13.473Z,87.64
2018-03-03T05:01:13.508Z,87.85
2018-03-03T05:02:13.496Z,87.75
2018-03-03T05:03:13.487Z,87.95
2018-03-03T05:04:13.489Z,88.18
2018-03-03T05:05:13.489Z,88.37
2018-03-03T05:06:13.497Z,88.48
2018-03-03T05:07:13.487Z,88.24
2018-03-03T05:08:13.495Z,88.7
2018-03-03T05:09:13.492Z,88.71
2018-03-03T05:10:13.490Z,88.34
2018-03-03T05:12:13.573Z,88.07
2018-03-03T05:13:13.500Z,88.46
2018-03-03T05:14:13.543Z,88.42
2018-03-03T05:15:13.505Z,88.43
2018-03-03T05:16:13.499Z,88.83
2018-03-03T05:17:13.506Z,88.59
2018-03-03T05:18:13.909Z,88.89
2018-03-03T05:19:13.521Z,88.74
2018-03-03T05:20:13.527Z,89.02
2018-03-03T05:21:13.528Z,88.52
2018-03-03T05:22:13.531Z,87.87
2018-03-03T05:23:13.535Z,88.37
2018-03-03T05:24:13.539Z,87.86
2018-03-03T05:25:13.551Z,88.69
2018-03-03T05:26:13.543Z,88.59
2018-03-03T05:27:13.550Z,88.58
2018-03-03T05:28:13.558Z,88.27
2018-03-03T05:29:13.564Z,88.07
2018-03-03T05:30:13.572Z,87.73
2018-03-03T05:31:13.584Z,88.28
2018-03-03T05:32:13.584Z,88.15
2018-03-03T05:33:13.597Z,87.83
2018-03-03T05:34:13.594Z,88.41
2018-03-03T05:35:13.590Z,88.51
2018-03-03T05:36:13.591Z,88.91
2018-03-03T05:37:13.600Z,88.88
2018-03-03T05:38:13.592Z,88.99
2018-03-03T05:39:13.602Z,88.64
2018-03-03T05:40:13.605Z,88.66
2018-03-03T05:41:13.598Z,88.25
2018-03-03T05:42:13.632Z,88.19
2018-03-03T05:43:13.611Z,88.04
2018-03-03T05:44:13.605Z,88.67
2018-03-03T05:45:13.607Z,88.66
2018-03-03T05:46:13.605Z,88.47
2018-03-03T05:47:13.640Z,88.54
2018-03-03T05:48:13.620Z,88.82
2018-03-03T05:49:13.616Z,88.54
2018-03-03T05:50:13.619Z,88
2018-03-03T05:51:13.624Z,88.47
2018-03-03T05:52:13.643Z,88.56
2018-03-03T05:53:13.634Z,88.62
2018-03-03T05:54:13.632Z,89.03
2018-03-03T05:55:13.633Z,89.01
2018-03-03T05:56:13.639Z,88.7
2018-03-03T05:57:13.646Z,88.7
2018-03-03T05:58:13.659Z,88.91
2018-03-03T05:59:13.657Z,88.36
2018-03-03T06:00:13.633Z,88.02
2018-03-03T06:01:13.642Z,88.38
2018-03-03T06:02:13.639Z,88.43
2018-03-03T06:03:13.642Z,87.26
2018-03-03T06:04:13.650Z,86.88
2018-03-03T06:05:13.655Z,87.77
2018-03-03T06:06:13.656Z,87.66
2018-03-03T06:07:13.693Z,87.57
2018-03-03T06:08:13.667Z,88.12
2018-03-03T06:09:13.674Z,87.85
2018-03-03T06:10:13.684Z,87.48
2018-03-03T06:11:13.683Z,87.56
2018-03-03T06:12:13.704Z,88.09
2018-03-03T06:13:13.685Z,87.91
2018-03-03T06:14:13.683Z,88.7
2018-03-03T06:15:13.686Z,88.85
2018-03-03T06:16:13.690Z,88.41
2018-03-03T06:17:13.692Z,87.63
2018-03-03T06:18:13.696Z,88.64
2018-03-03T06:19:13.713Z,88.82
2018-03-03T06:20:13.708Z,88.98
2018-03-03T06:21:13.708Z,88.94
2018-03-03T06:22:13.710Z,89.06
2018-03-03T06:23:13.730Z,89.38
2018-03-03T06:24:13.710Z,89.15
2018-03-03T06:25:13.715Z,89.29
2018-03-03T06:26:13.718Z,89.31
2018-03-03T06:27:13.724Z,89.29
2018-03-03T06:28:13.740Z,89.45
2018-03-03T06:29:13.733Z,89.95
2018-03-03T06:30:13.796Z,89.59
2018-03-03T06:31:13.725Z,89.83
2018-03-03T06:32:13.731Z,89.97
2018-03-03T06:33:13.737Z,89.82
2018-03-03T06:34:13.774Z,89.69
2018-03-03T06:35:13.757Z,89.46
2018-03-03T06:36:13.758Z,89.75
2018-03-03T06:37:13.760Z,89.87
2018-03-03T06:38:13.767Z,90.19
2018-03-03T06:39:13.773Z,89.97
2018-03-03T06:40:13.795Z,90.15
2018-03-03T06:41:13.788Z,90.2
2018-03-03T06:42:13.779Z,90.43
2018-03-03T06:44:20.005Z,90.18
2018-03-03T06:45:13.781Z,90.22
2018-03-03T06:46:13.800Z,89.76
2018-03-03T06:47:13.793Z,90.1
2018-03-03T06:48:13.785Z,89.97
2018-03-03T06:49:13.794Z,89.72
2018-03-03T06:50:13.802Z,89.68
2018-03-03T06:51:13.807Z,90.02
2018-03-03T06:52:13.799Z,89.88
2018-03-03T06:53:13.808Z,90.19
2018-03-03T06:54:13.805Z,89.61
2018-03-03T06:55:13.804Z,89.38
2018-03-03T06:56:13.825Z,89.34
2018-03-03T06:57:13.819Z,89.4
2018-03-03T06:58:13.812Z,89.4
2018-03-03T06:59:13.815Z,89.67
2018-03-03T07:00:13.865Z,89.92
2018-03-03T07:01:13.828Z,89.96
2018-03-03T07:02:13.831Z,89.61
2018-03-03T07:03:13.830Z,89.37
2018-03-03T07:04:13.825Z,89.37
2018-03-03T07:05:13.825Z,89.38
2018-03-03T07:06:13.834Z,89.55
2018-03-03T07:07:13.833Z,89.42
2018-03-03T07:08:13.838Z,88.96
2018-03-03T07:09:13.845Z,89.03
2018-03-03T07:10:13.970Z,88.37
2018-03-03T07:11:13.860Z,89.13
2018-03-03T07:12:13.860Z,89.02
2018-03-03T07:13:13.867Z,88.37
2018-03-03T07:14:13.865Z,88.44
2018-03-03T07:15:13.873Z,87.79
2018-03-03T07:16:13.877Z,88.39
2018-03-03T07:17:13.914Z,88.88
2018-03-03T07:18:13.889Z,88.75
2018-03-03T07:19:13.897Z,88.84
2018-03-03T07:20:13.933Z,88.69
2018-03-03T07:21:13.957Z,87.8
2018-03-03T07:22:13.923Z,88.54
2018-03-03T07:23:13.909Z,88.47
2018-03-03T07:24:13.914Z,88.35
2018-03-03T07:25:13.949Z,87.81
2018-03-03T07:26:13.904Z,87.14
2018-03-03T07:27:13.916Z,87.38
2018-03-03T07:28:13.916Z,87.56
2018-03-03T07:29:13.923Z,88
2018-03-03T07:30:13.919Z,88.17
2018-03-03T07:31:13.916Z,88.26
2018-03-03T07:32:13.926Z,87.87
2018-03-03T07:33:13.937Z,87.59
2018-03-03T07:34:13.936Z,87.55
2018-03-03T07:35:13.991Z,87.69
2018-03-03T07:36:13.944Z,88.14
2018-03-03T07:37:13.945Z,87.71
2018-03-03T07:38:13.949Z,87.69
2018-03-03T07:39:13.942Z,87.76
2018-03-03T07:40:13.953Z,87.71
2018-03-03T07:41:13.956Z,87.34
2018-03-03T07:42:13.966Z,87.32
2018-03-03T07:43:13.964Z,87.85
2018-03-03T07:44:13.965Z,87.38
2018-03-03T07:45:13.985Z,87.28
2018-03-03T07:46:13.983Z,87.18
2018-03-03T07:47:13.975Z,87.01
2018-03-03T07:48:13.980Z,86.4
2018-03-03T07:49:13.985Z,86.32
2018-03-03T07:50:13.992Z,86.18
2018-03-03T07:51:13.995Z,87.03
2018-03-03T07:52:14.045Z,87.27
2018-03-03T07:53:14.012Z,86.95
2018-03-03T07:54:14.018Z,86.87
2018-03-03T07:55:14.051Z,86.86
2018-03-03T07:56:14.018Z,86.37
2018-03-03T07:57:14.034Z,85.62
2018-03-03T07:58:14.029Z,85.41
2018-03-03T07:59:14.039Z,85.93
2018-03-03T08:00:14.080Z,85.35
2018-03-03T08:01:14.046Z,86.81
2018-03-03T08:02:14.044Z,86.9
2018-03-03T08:03:14.045Z,86.24
2018-03-03T08:04:14.052Z,86.02
2018-03-03T08:05:14.077Z,85.7
2018-03-03T08:06:14.061Z,86.87
2018-03-03T08:07:14.068Z,86.96
2018-03-03T08:08:14.070Z,86.77
2018-03-03T08:09:14.074Z,86.29
2018-03-03T08:10:14.074Z,87.01
2018-03-03T08:11:14.095Z,86.95
2018-03-03T08:12:14.079Z,86.58
2018-03-03T08:13:14.079Z,87.35
2018-03-03T08:14:14.086Z,87.21
2018-03-03T08:15:14.086Z,87.12
2018-03-03T08:16:14.113Z,86.87
2018-03-03T08:17:14.091Z,87.12
2018-03-03T08:19:14.105Z,87.48
2018-03-03T08:20:14.110Z,87.79
2018-03-03T08:21:14.117Z,86.68
2018-03-03T08:22:14.117Z,87.79
2018-03-03T08:23:14.123Z,87.57
2018-03-03T08:24:14.119Z,87.39
2018-03-03T08:25:14.126Z,87.61
2018-03-03T08:26:14.147Z,86.65
2018-03-03T08:27:14.121Z,86.54
2018-03-03T08:28:14.129Z,86.71
2018-03-03T08:29:14.140Z,86.2
2018-03-03T08:30:14.141Z,86.89
2018-03-03T08:31:14.135Z,86.99
2018-03-03T08:32:14.152Z,87.05
2018-03-03T08:33:14.142Z,87.07
2018-03-03T08:34:14.146Z,87.06
2018-03-03T08:35:14.158Z,87.46
2018-03-03T08:36:14.155Z,86.84
2018-03-03T08:37:14.152Z,87.69
2018-03-03T08:38:14.154Z,87.08
2018-03-03T08:39:14.159Z,87.02
2018-03-03T08:40:14.157Z,86.85
2018-03-03T08:41:14.152Z,87.02
2018-03-03T08:42:14.180Z,87.08
2018-03-03T08:43:14.161Z,86.68
2018-03-03T08:46:14.247Z,87.01
2018-03-03T08:47:14.177Z,86.55
2018-03-03T08:48:14.189Z,87.33
2018-03-03T08:49:14.476Z,86.22
2018-03-03T08:51:20.441Z,87.1
2018-03-03T08:52:14.202Z,86.52
2018-03-03T08:53:14.213Z,86.64
2018-03-03T08:54:14.226Z,86.43
2018-03-03T08:55:14.203Z,86.78
2018-03-03T08:56:14.211Z,86.54
2018-03-03T08:57:14.225Z,85.92
2018-03-03T08:58:14.215Z,86.01
2018-03-03T08:59:14.238Z,86.34
2018-03-03T09:00:14.222Z,86.9
2018-03-03T09:01:14.261Z,86.73
2018-03-03T09:02:14.245Z,86.86
2018-03-03T09:03:14.230Z,86.64
2018-03-03T09:04:14.237Z,86.54
2018-03-03T09:05:14.258Z,87.08
2018-03-03T09:06:14.318Z,86.64
2018-03-03T09:07:14.231Z,86.76
2018-03-03T09:08:14.232Z,86.92
2018-03-03T09:09:14.238Z,86.76
2018-03-03T09:10:14.246Z,86.77
2018-03-03T09:11:14.246Z,86.86
2018-03-03T09:12:14.277Z,87.05
2018-03-03T09:13:14.251Z,87.13
2018-03-03T09:14:14.263Z,87.2
2018-03-03T09:15:14.264Z,86.89
2018-03-03T09:16:14.286Z,87.27
2018-03-03T09:17:14.275Z,86.87
2018-03-03T09:18:14.283Z,86.62
2018-03-03T09:19:14.283Z,86.6
2018-03-03T09:20:14.290Z,86.18
2018-03-03T09:21:14.306Z,85.91
2018-03-03T09:22:14.293Z,86.61
2018-03-03T09:23:14.293Z,86.28
2018-03-03T09:24:14.297Z,86.14
2018-03-03T09:25:14.306Z,86.15
2018-03-03T09:26:14.312Z,85.98
2018-03-03T09:27:14.316Z,85.96
2018-03-03T09:28:14.309Z,86.35
2018-03-03T09:29:14.309Z,86.16
2018-03-03T09:30:14.314Z,86
2018-03-03T09:31:14.314Z,85.66
2018-03-03T09:32:14.319Z,86.34
2018-03-03T09:33:14.315Z,86.02
2018-03-03T09:34:14.326Z,86.18
2018-03-03T09:35:14.324Z,86.04
2018-03-03T09:36:15.116Z,86.33
2018-03-03T09:37:14.329Z,85.54
2018-03-03T09:38:14.353Z,85.47
2018-03-03T09:39:14.343Z,85.26
2018-03-03T09:40:14.358Z,85.47
2018-03-03T09:41:14.342Z,85.21
2018-03-03T09:42:14.366Z,85.33
2018-03-03T09:43:14.343Z,85.31
2018-03-03T09:44:14.355Z,85.61
2018-03-03T09:45:14.355Z,85.19
2018-03-03T09:46:14.513Z,85.67
2018-03-03T09:47:14.398Z,85.51
2018-03-03T09:48:14.372Z,84.34
2018-03-03T09:49:14.399Z,84.73
2018-03-03T09:50:14.372Z,84.85
2018-03-03T09:51:14.376Z,84.86
2018-03-03T09:52:14.383Z,84.39
2018-03-03T09:53:14.496Z,83.9
2018-03-03T09:54:14.380Z,83.96
2018-03-03T09:55:14.396Z,83.64
2018-03-03T09:56:14.402Z,83.27
2018-03-03T09:57:14.399Z,83.63
2018-03-03T09:58:14.402Z,82.98
2018-03-03T09:59:14.405Z,82.71
2018-03-03T10:00:14.410Z,83.07
2018-03-03T10:01:14.414Z,83.1
2018-03-03T10:02:14.447Z,83
2018-03-03T10:03:14.420Z,81.92
2018-03-03T10:04:14.424Z,82.24
2018-03-03T10:05:14.421Z,82.44
2018-03-03T10:06:14.431Z,82.47
2018-03-03T10:07:14.456Z,81.61
2018-03-03T10:08:14.446Z,82.13
2018-03-03T10:09:14.440Z,82.62
2018-03-03T10:10:14.436Z,81.72
2018-03-03T10:11:14.440Z,82.45
2018-03-03T10:12:14.466Z,81.61
2018-03-03T10:13:14.442Z,82.15
2018-03-03T10:14:14.449Z,82.39
2018-03-03T10:15:14.527Z,81.79
2018-03-03T10:16:14.505Z,81.4
2018-03-03T10:17:14.510Z,81.88
2018-03-03T10:18:14.467Z,81.67
2018-03-03T10:19:14.468Z,81.28
2018-03-03T10:20:14.477Z,82.41
2018-03-03T10:21:14.479Z,81.48
2018-03-03T10:22:14.486Z,81.56
2018-03-03T10:23:14.485Z,82.3
2018-03-03T10:24:14.496Z,82.46
2018-03-03T10:25:14.655Z,81.98
2018-03-03T10:26:14.518Z,82.67
2018-03-03T10:27:14.570Z,83.03
2018-03-03T10:28:14.510Z,81.9
2018-03-03T10:29:14.507Z,82.73
2018-03-03T10:30:14.524Z,81.6
2018-03-03T10:31:14.551Z,81.49
2018-03-03T10:32:14.527Z,81.88
2018-03-03T10:33:14.520Z,81.51
2018-03-03T10:34:14.524Z,81.14
2018-03-03T10:35:14.544Z,81.63
2018-03-03T10:36:14.570Z,83.07
2018-03-03T10:38:14.596Z,81.8
2018-03-03T10:39:14.551Z,82.85
2018-03-03T10:40:14.548Z,82.04
2018-03-03T10:41:14.561Z,81.97
2018-03-03T10:42:14.559Z,82.04
2018-03-03T10:43:14.822Z,81.78
2018-03-03T10:44:21.550Z,81.43
2018-03-03T10:45:14.563Z,80.99
2018-03-03T10:47:20.817Z,80.96
2018-03-03T10:48:14.588Z,81.77
2018-03-03T10:49:14.580Z,81.29
2018-03-03T10:50:14.583Z,81.07
2018-03-03T10:51:14.589Z,81.25
2018-03-03T10:52:14.596Z,81.13
2018-03-03T10:53:14.600Z,81.39
2018-03-03T10:54:14.617Z,81.75
2018-03-03T10:55:14.610Z,82.8
2018-03-03T10:58:14.721Z,80.63
2018-03-03T10:59:14.613Z,80.07
2018-03-03T11:00:14.642Z,80.49
2018-03-03T11:01:14.622Z,80.22
2018-03-03T11:02:14.625Z,79.36
2018-03-03T11:03:14.631Z,79.72
2018-03-03T11:04:14.633Z,78.92
2018-03-03T11:05:14.663Z,78.54
2018-03-03T11:06:14.652Z,77.63
2018-03-03T11:07:14.647Z,78.3
2018-03-03T11:08:14.681Z,78.18
2018-03-03T11:09:14.663Z,78.77
2018-03-03T11:10:14.664Z,77.73
2018-03-03T11:11:14.729Z,77.75
2018-03-03T11:12:14.731Z,78.05
2018-03-03T11:13:14.690Z,77.22
2018-03-03T11:14:14.682Z,77.21
2018-03-03T11:15:14.704Z,76.65
2018-03-03T11:16:14.694Z,77.03
2018-03-03T11:17:14.692Z,78.08
2018-03-03T11:18:14.717Z,76.84
2018-03-03T11:19:14.707Z,77.07
2018-03-03T11:20:14.715Z,76.28
2018-03-03T11:21:14.706Z,76.9
2018-03-03T11:22:14.703Z,75.93
2018-03-03T11:23:14.729Z,76.68
2018-03-03T11:24:14.705Z,76.18
2018-03-03T11:25:14.714Z,76.89
2018-03-03T11:26:14.904Z,77.04
2018-03-03T11:28:27.013Z,77.31
2018-03-03T11:29:14.713Z,77.37
2018-03-03T11:30:14.715Z,75.48
2018-03-03T11:31:14.714Z,75.63
2018-03-03T11:32:14.720Z,76.14
2018-03-03T11:33:14.748Z,75.92
2018-03-03T11:34:14.731Z,74.99
2018-03-03T11:35:14.739Z,75.76
2018-03-03T11:36:14.751Z,75.24
2018-03-03T11:37:14.743Z,76.03
2018-03-03T11:38:14.746Z,74.2
2018-03-03T11:39:14.757Z,73.37
2018-03-03T11:40:14.747Z,74.4
2018-03-03T11:41:14.762Z,75.21
2018-03-03T11:42:14.749Z,74.92
2018-03-03T11:43:14.753Z,73.61
2018-03-03T11:44:14.751Z,73.87
2018-03-03T11:45:14.750Z,73.51
2018-03-03T11:46:14.783Z,73.52
2018-03-03T11:47:14.780Z,73.16
2018-03-03T11:48:14.757Z,73.22
2018-03-03T11:49:14.762Z,72.66
2018-03-03T11:50:14.771Z,73.29
2018-03-03T11:51:14.765Z,72.89
2018-03-03T11:52:14.770Z,73.3
2018-03-03T11:53:14.778Z,73.05
2018-03-03T11:54:14.780Z,72.84
2018-03-03T11:55:14.789Z,73.08
2018-03-03T11:56:14.796Z,72.62
2018-03-03T11:57:14.802Z,72.46
2018-03-03T11:58:14.804Z,72.71
2018-03-03T11:59:14.798Z,72.92
2018-03-03T12:00:14.801Z,72.84
2018-03-03T12:01:14.805Z,73.12
2018-03-03T12:02:14.811Z,73.22
2018-03-03T12:03:14.816Z,73.13
2018-03-03T12:04:14.823Z,73.28
2018-03-03T12:05:14.835Z,72.26
2018-03-03T12:06:14.832Z,72.04
2018-03-03T12:07:14.843Z,72.15
2018-03-03T12:08:14.834Z,71.68
2018-03-03T12:09:14.859Z,71.86
2018-03-03T12:10:14.845Z,72.75
2018-03-03T12:11:14.844Z,72.37
2018-03-03T12:12:14.838Z,72.39
2018-03-03T12:13:14.871Z,71.94
2018-03-03T12:14:14.859Z,72.17
2018-03-03T12:15:14.842Z,72.18
2018-03-03T12:16:14.846Z,72.75
2018-03-03T12:17:14.850Z,73.65
2018-03-03T12:18:14.845Z,73.31
2018-03-03T12:19:14.860Z,72.52
2018-03-03T12:20:14.858Z,72.24
2018-03-03T12:21:14.852Z,71.89
2018-03-03T12:22:14.863Z,71.14
2018-03-03T12:23:14.855Z,71.76
2018-03-03T12:24:14.869Z,73.18
2018-03-03T12:25:14.868Z,72.38
2018-03-03T12:26:14.867Z,72.18
2018-03-03T12:27:14.884Z,71.94
2018-03-03T12:28:14.881Z,72.03
2018-03-03T12:29:14.882Z,71.3
2018-03-03T12:30:14.891Z,70.23
2018-03-03T12:31:14.896Z,70.15
2018-03-03T12:32:14.893Z,71.23
2018-03-03T12:33:14.900Z,70.53
2018-03-03T12:34:14.912Z,70.24
2018-03-03T12:35:14.913Z,70.32
2018-03-03T12:36:14.921Z,70.54
2018-03-03T12:37:14.916Z,71.23
2018-03-03T12:38:14.932Z,71.23
2018-03-03T12:39:14.927Z,69.92
2018-03-03T12:40:15.059Z,70.42
2018-03-03T12:41:17.790Z,70.89
2018-03-03T12:42:14.948Z,69.41
2018-03-03T12:43:14.950Z,69.54
2018-03-03T12:44:14.951Z,69.5
2018-03-03T12:45:14.947Z,70.42
2018-03-03T12:46:14.960Z,69.83
2018-03-03T12:47:15.228Z,69.77
2018-03-03T12:48:14.971Z,70.45
2018-03-03T12:49:14.982Z,70.33
2018-03-03T12:50:14.982Z,69.35
2018-03-03T12:51:14.992Z,69.5
2018-03-03T12:52:15.013Z,70.24
2018-03-03T12:53:14.996Z,70.15
2018-03-03T12:54:14.996Z,69.87
2018-03-03T12:55:15.010Z,69.46
2018-03-03T12:56:15.011Z,68.99
2018-03-03T12:57:15.001Z,67.97
2018-03-03T12:58:15.019Z,67.85
2018-03-03T12:59:15.015Z,67.94
2018-03-03T13:00:15.285Z,67.21
2018-03-03T13:01:15.014Z,67.72
2018-03-03T13:02:15.023Z,67.92
2018-03-03T13:03:15.055Z,67.72
2018-03-03T13:04:15.020Z,67.41
2018-03-03T13:05:15.042Z,67.23
2018-03-03T13:06:15.023Z,67.68
2018-03-03T13:07:15.031Z,67.48
2018-03-03T13:08:15.058Z,67.27
2018-03-03T13:09:15.041Z,66.09
2018-03-03T13:10:15.041Z,65.69
2018-03-03T13:11:15.039Z,65.55
2018-03-03T13:12:15.087Z,66.11